createdAt,value
2018-08-20T00:01:56.334Z,64.00
2018-08-20T00:04:25.571Z,63.30
2018-08-20T00:06:57.871Z,63.70
2018-08-20T00:09:35.541Z,64.10
2018-08-20T00:12:06.464Z,64.50
2018-08-20T00:14:35.720Z,64.50
2018-08-20T00:17:05.238Z,64.40
2018-08-20T00:19:34.582Z,64.40
2018-08-20T00:22:03.837Z,64.70
2018-08-20T00:24:33.091Z,65.00
2018-08-20T00:27:03.413Z,64.80
2018-08-20T00:29:35.684Z,65.10
2018-08-20T00:32:05.193Z,65.40
2018-08-20T00:34:34.441Z,65.50
2018-08-20T00:37:04.165Z,65.60
2018-08-20T00:39:33.369Z,65.70
2018-08-20T00:42:02.717Z,66.30
2018-08-20T00:44:31.947Z,66.30
2018-08-20T00:47:01.237Z,66.40
2018-08-20T00:49:30.510Z,66.40
2018-08-20T00:51:59.837Z,66.60
2018-08-20T00:54:29.248Z,66.50
2018-08-20T00:56:58.647Z,66.60
2018-08-20T00:59:27.959Z,67.10
2018-08-20T01:01:57.269Z,67.10
2018-08-20T01:04:26.516Z,66.90
2018-08-20T01:06:55.764Z,66.90
2018-08-20T01:09:24.982Z,66.90
2018-08-20T01:11:54.229Z,67.10
2018-08-20T01:14:23.483Z,66.90
2018-08-20T01:16:52.729Z,67.00
2018-08-20T01:19:22.202Z,66.80
2018-08-20T01:21:52.417Z,66.90
2018-08-20T01:24:21.706Z,67.40
2018-08-20T01:26:50.985Z,67.70
2018-08-20T01:29:20.211Z,67.70
2018-08-20T01:31:49.452Z,67.90
2018-08-20T01:34:18.654Z,68.20
2018-08-20T01:36:47.896Z,68.40
2018-08-20T01:39:17.122Z,68.60
2018-08-20T01:41:46.349Z,68.70
2018-08-20T01:44:15.594Z,68.60
2018-08-20T01:46:44.829Z,68.80
2018-08-20T01:49:14.038Z,69.00
2018-08-20T01:51:43.311Z,69.20
2018-08-20T01:54:12.532Z,69.40
2018-08-20T01:56:41.864Z,69.20
2018-08-20T01:59:11.109Z,69.30
2018-08-20T02:01:40.366Z,69.70
2018-08-20T02:04:09.597Z,69.20
2018-08-20T02:06:38.832Z,69.50
2018-08-20T02:09:09.876Z,70.30
2018-08-20T02:11:39.112Z,69.40
2018-08-20T02:14:08.453Z,69.50
2018-08-20T02:16:38.619Z,69.40
2018-08-20T02:19:08.359Z,69.20
2018-08-20T02:21:37.604Z,69.40
2018-08-20T02:24:07.069Z,69.50
2018-08-20T02:26:36.316Z,69.70
2018-08-20T02:29:05.710Z,70.20
2018-08-20T02:31:34.949Z,70.40
2018-08-20T02:34:04.163Z,70.40
2018-08-20T02:36:33.470Z,70.40
2018-08-20T02:39:02.809Z,70.40
2018-08-20T02:41:32.066Z,70.40
2018-08-20T02:44:01.353Z,70.60
2018-08-20T02:46:45.522Z,70.90
2018-08-20T02:49:15.467Z,71.20
2018-08-20T02:51:45.000Z,71.70
2018-08-20T02:54:14.224Z,71.80
2018-08-20T02:56:43.745Z,72.00
2018-08-20T02:59:13.734Z,72.00
2018-08-20T03:01:42.998Z,72.10
2018-08-20T03:04:13.061Z,71.80
2018-08-20T03:06:42.308Z,72.10
2018-08-20T03:09:13.637Z,72.70
2018-08-20T03:11:42.881Z,73.00
2018-08-20T03:14:12.794Z,73.20
2018-08-20T03:16:42.096Z,73.00
2018-08-20T03:19:11.381Z,73.00
2018-08-20T03:21:40.634Z,73.10
2018-08-20T03:24:10.001Z,73.10
2018-08-20T03:26:39.237Z,73.20
2018-08-20T03:29:08.482Z,73.00
2018-08-20T03:31:37.697Z,73.30
2018-08-20T03:34:07.404Z,73.20
2018-08-20T03:36:36.656Z,73.30
2018-08-20T03:39:08.128Z,73.20
2018-08-20T03:41:37.371Z,73.50
2018-08-20T03:44:06.588Z,73.80
2018-08-20T03:46:35.836Z,74.00
2018-08-20T03:49:05.438Z,74.00
2018-08-20T03:51:34.704Z,73.80
2018-08-20T03:54:03.977Z,73.50
2018-08-20T03:56:33.263Z,73.30
2018-08-20T03:59:02.525Z,74.30
2018-08-20T04:01:31.781Z,74.60
2018-08-20T04:04:01.125Z,74.70
2018-08-20T04:06:30.405Z,75.10
2018-08-20T04:08:59.673Z,75.10
2018-08-20T04:11:28.917Z,76.20
2018-08-20T04:13:58.181Z,75.40
2018-08-20T04:16:27.423Z,75.40
2018-08-20T04:19:00.857Z,75.60
2018-08-20T04:21:30.109Z,75.90
2018-08-20T04:23:59.370Z,76.10
2018-08-20T04:26:28.649Z,76.20
2018-08-20T04:28:57.926Z,76.00
2018-08-20T04:31:27.164Z,76.60
2018-08-20T04:33:56.417Z,75.70
2018-08-20T04:36:25.996Z,75.30
2018-08-20T04:38:55.214Z,75.60
2018-08-20T04:41:24.441Z,75.50
2018-08-20T04:43:53.783Z,75.40
2018-08-20T04:46:22.994Z,75.40
2018-08-20T04:48:52.726Z,75.30
2018-08-20T04:51:22.061Z,75.20
2018-08-20T04:53:51.222Z,75.30
2018-08-20T04:56:20.426Z,75.40
2018-08-20T04:58:49.695Z,75.70
2018-08-20T05:01:18.982Z,75.90
2018-08-20T05:03:48.269Z,75.70
2018-08-20T05:06:17.598Z,75.90
2018-08-20T05:08:47.228Z,75.70
2018-08-20T05:11:16.483Z,75.70
2018-08-20T05:13:45.756Z,75.60
2018-08-20T05:16:15.001Z,75.60
2018-08-20T05:18:44.259Z,75.30
2018-08-20T05:21:13.478Z,75.40
2018-08-20T05:23:42.755Z,75.20
2018-08-20T05:26:12.013Z,75.10
2018-08-20T05:28:41.289Z,75.00
2018-08-20T05:31:10.521Z,74.50
2018-08-20T05:33:39.803Z,75.00
2018-08-20T05:36:09.089Z,75.10
2018-08-20T05:38:38.346Z,75.10
2018-08-20T05:41:07.553Z,74.80
2018-08-20T05:43:36.989Z,74.80
2018-08-20T05:46:06.687Z,74.60
2018-08-20T05:48:36.026Z,74.40
2018-08-20T05:51:05.309Z,74.10
2018-08-20T05:53:34.565Z,73.80
2018-08-20T05:56:03.813Z,73.60
2018-08-20T05:58:33.088Z,73.50
2018-08-20T06:01:02.328Z,74.10
2018-08-20T06:03:31.656Z,73.10
2018-08-20T06:06:00.874Z,73.00
2018-08-20T06:08:30.182Z,73.40
2018-08-20T06:10:59.422Z,72.70
2018-08-20T06:13:28.715Z,72.70
2018-08-20T06:15:58.116Z,72.50
2018-08-20T06:18:27.430Z,72.50
2018-08-20T06:20:56.730Z,72.30
2018-08-20T06:23:26.075Z,72.00
2018-08-20T06:25:55.408Z,71.80
2018-08-20T06:28:24.685Z,71.70
2018-08-20T06:30:53.983Z,71.20
2018-08-20T06:33:23.575Z,70.90
2018-08-20T06:35:52.869Z,70.50
2018-08-20T06:38:22.264Z,70.10
2018-08-20T06:40:52.236Z,69.80
2018-08-20T06:43:21.554Z,69.40
2018-08-20T06:45:50.987Z,69.20
2018-08-20T06:48:20.257Z,68.30
2018-08-20T06:50:49.492Z,66.90
2018-08-20T06:53:18.733Z,67.30
2018-08-20T06:55:48.206Z,66.90
2018-08-20T06:58:17.436Z,66.10
2018-08-20T07:00:46.997Z,65.40
2018-08-20T07:03:16.332Z,64.50
2018-08-20T07:05:45.605Z,64.30
2018-08-20T07:08:14.842Z,63.60
2018-08-20T07:10:46.308Z,63.10
2018-08-20T07:13:30.513Z,62.70
2018-08-20T07:15:59.741Z,62.20
2018-08-20T07:18:29.266Z,62.30
2018-08-20T07:20:58.843Z,63.60
2018-08-20T07:23:28.664Z,62.20
2018-08-20T07:25:57.993Z,60.70
2018-08-20T07:28:27.316Z,61.40
2018-08-20T07:30:56.646Z,60.40
2018-08-20T07:33:25.997Z,60.60
2018-08-20T07:35:55.443Z,60.20
2018-08-20T07:38:24.723Z,59.50
2018-08-20T07:40:54.091Z,59.50
2018-08-20T07:43:23.424Z,59.50
2018-08-20T07:45:53.370Z,59.80
2018-08-20T07:48:22.876Z,59.60
2018-08-20T07:50:52.231Z,59.10
2018-08-20T07:53:21.497Z,59.30
2018-08-20T07:55:51.102Z,59.20
2018-08-20T07:58:20.379Z,59.20
2018-08-20T08:00:49.715Z,59.10
2018-08-20T08:03:29.251Z,58.00
2018-08-20T08:06:00.558Z,58.20
2018-08-20T08:08:30.009Z,57.00
2018-08-20T08:11:00.489Z,57.00
2018-08-20T08:13:29.843Z,57.40
2018-08-20T08:15:59.200Z,56.50
2018-08-20T08:18:28.503Z,55.90
2018-08-20T08:20:57.793Z,55.50
2018-08-20T08:23:27.047Z,54.80
2018-08-20T08:25:56.422Z,55.00
2018-08-20T08:28:25.736Z,54.50
2018-08-20T08:30:54.989Z,54.30
2018-08-20T08:33:24.281Z,54.00
2018-08-20T08:35:53.589Z,53.90
2018-08-20T08:38:22.840Z,53.70
2018-08-20T08:40:52.078Z,53.60
2018-08-20T08:43:21.421Z,52.80
2018-08-20T08:45:50.811Z,52.30
2018-08-20T08:48:20.102Z,52.20
2018-08-20T08:50:49.394Z,52.40
2018-08-20T08:53:18.693Z,52.40
2018-08-20T08:55:47.938Z,52.10
2018-08-20T08:58:17.262Z,51.90
2018-08-20T09:00:46.603Z,51.70
2018-08-20T09:03:15.840Z,51.30
2018-08-20T09:05:45.192Z,51.10
2018-08-20T09:08:14.575Z,50.10
2018-08-20T09:10:50.709Z,50.50
2018-08-20T09:13:19.996Z,50.40
2018-08-20T09:15:49.270Z,50.00
2018-08-20T09:18:18.706Z,49.00
2018-08-20T09:20:48.079Z,48.90
2018-08-20T09:23:17.368Z,49.60
2018-08-20T09:25:46.704Z,49.60
2018-08-20T09:28:15.941Z,48.80
2018-08-20T09:30:45.215Z,48.80
2018-08-20T09:33:14.454Z,48.80
2018-08-20T09:35:43.807Z,47.90
2018-08-20T09:38:13.126Z,48.10
2018-08-20T09:40:42.478Z,47.90
2018-08-20T09:43:11.691Z,46.90
2018-08-20T09:45:40.920Z,46.70
2018-08-20T09:48:10.229Z,46.30
2018-08-20T09:50:39.512Z,46.20
2018-08-20T09:53:08.733Z,46.30
2018-08-20T09:55:37.961Z,46.30
2018-08-20T09:58:07.217Z,45.90
2018-08-20T10:00:41.628Z,45.30
2018-08-20T10:03:11.537Z,45.10
2018-08-20T10:05:40.831Z,45.10
2018-08-20T10:08:10.467Z,44.60
2018-08-20T10:10:39.701Z,44.00
2018-08-20T10:13:08.942Z,44.10
2018-08-20T10:15:38.208Z,43.70
2018-08-20T10:18:08.041Z,43.20
2018-08-20T10:20:37.336Z,42.80
2018-08-20T10:23:06.787Z,42.30
2018-08-20T10:25:36.057Z,42.10
2018-08-20T10:28:05.329Z,41.90
2018-08-20T10:30:34.551Z,41.80
2018-08-20T10:33:03.788Z,41.50
2018-08-20T10:35:33.013Z,41.40
2018-08-20T10:38:02.303Z,41.10
2018-08-20T10:40:31.562Z,40.70
2018-08-20T10:43:00.860Z,40.40
2018-08-20T10:45:35.475Z,40.80
2018-08-20T10:48:05.108Z,40.80
2018-08-20T10:50:34.357Z,40.70
2018-08-20T10:53:03.601Z,40.60
2018-08-20T10:55:32.813Z,40.80
2018-08-20T10:58:02.082Z,40.70
2018-08-20T11:00:31.380Z,40.90
2018-08-20T11:03:00.629Z,40.60
2018-08-20T11:05:29.877Z,39.80
2018-08-20T11:07:59.209Z,38.70
2018-08-20T11:10:28.631Z,38.20
2018-08-20T11:12:57.881Z,37.80
2018-08-20T11:15:27.181Z,38.30
2018-08-20T11:17:56.429Z,39.60
2018-08-20T11:20:25.753Z,39.30
2018-08-20T11:22:55.021Z,39.80
2018-08-20T11:25:24.274Z,39.80
2018-08-20T11:27:53.518Z,39.90
2018-08-20T11:30:22.886Z,40.80
2018-08-20T11:32:52.042Z,40.70
2018-08-20T11:35:21.321Z,40.10
2018-08-20T11:37:50.569Z,39.70
2018-08-20T11:40:19.791Z,39.80
2018-08-20T11:42:49.037Z,39.80
2018-08-20T11:45:18.227Z,39.70
2018-08-20T11:47:47.458Z,40.00
2018-08-20T11:50:16.717Z,40.00
2018-08-20T11:52:45.957Z,40.00
2018-08-20T11:55:15.161Z,39.90
2018-08-20T11:57:44.445Z,40.00
2018-08-20T12:00:13.661Z,40.00
2018-08-20T12:02:42.929Z,40.30
2018-08-20T12:05:12.561Z,41.20
2018-08-20T12:07:41.913Z,41.80
2018-08-20T12:10:11.600Z,42.30
2018-08-20T12:12:41.331Z,42.90
2018-08-20T12:15:12.619Z,43.30
2018-08-20T12:17:42.819Z,43.60
2018-08-20T12:20:12.102Z,43.80
2018-08-20T12:22:41.449Z,43.50
2018-08-20T12:25:13.545Z,45.00
2018-08-20T12:27:43.561Z,45.30
2018-08-20T12:30:14.045Z,45.60
2018-08-20T12:32:43.413Z,45.70
2018-08-20T12:35:12.701Z,45.90
2018-08-20T12:37:42.228Z,45.70
2018-08-20T12:40:11.444Z,45.70
2018-08-20T12:42:40.696Z,46.10
2018-08-20T12:45:09.934Z,46.30
2018-08-20T12:47:39.187Z,46.50
2018-08-20T12:50:08.464Z,47.20
2018-08-20T12:52:37.779Z,46.30
2018-08-20T12:55:07.037Z,46.60
2018-08-20T12:57:36.358Z,46.10
2018-08-20T13:00:06.937Z,45.80
2018-08-20T13:02:36.186Z,45.80
2018-08-20T13:05:05.514Z,46.00
2018-08-20T13:07:34.794Z,45.80
2018-08-20T13:10:04.293Z,45.80
2018-08-20T13:12:33.622Z,46.10
2018-08-20T13:15:02.874Z,46.20
2018-08-20T13:17:32.140Z,46.10
2018-08-20T13:20:01.472Z,46.00
2018-08-20T13:22:30.689Z,45.80
2018-08-20T13:25:00.057Z,45.70
2018-08-20T13:27:29.293Z,45.70
2018-08-20T13:29:58.663Z,45.60
2018-08-20T13:32:27.893Z,45.20
2018-08-20T13:34:57.129Z,46.20
2018-08-20T13:37:26.426Z,47.00
2018-08-20T13:39:55.661Z,47.00
2018-08-20T13:42:24.930Z,47.10
2018-08-20T13:44:54.190Z,46.90
2018-08-20T13:47:23.434Z,46.80
2018-08-20T13:49:55.329Z,46.90
2018-08-20T13:52:24.610Z,47.50
2018-08-20T13:54:53.878Z,47.70
2018-08-20T13:57:23.297Z,48.10
2018-08-20T13:59:52.516Z,47.90
2018-08-20T14:02:21.756Z,48.10
2018-08-20T14:04:51.023Z,48.20
2018-08-20T14:07:20.328Z,48.20
2018-08-20T14:09:50.151Z,48.10
2018-08-20T14:12:19.385Z,48.10
2018-08-20T14:14:48.652Z,48.20
2018-08-20T14:17:17.887Z,48.30
2018-08-20T14:19:47.160Z,48.10
2018-08-20T14:22:16.450Z,48.30
2018-08-20T14:24:45.648Z,48.20
2018-08-20T14:27:14.960Z,48.40
2018-08-20T14:29:45.248Z,48.30
2018-08-20T14:32:14.485Z,48.30
2018-08-20T14:34:43.688Z,48.40
2018-08-20T14:37:13.114Z,48.40
2018-08-20T14:39:42.322Z,48.40
2018-08-20T14:42:11.584Z,48.60
2018-08-20T14:44:41.257Z,48.80
2018-08-20T14:47:10.650Z,48.90
2018-08-20T14:49:40.105Z,49.50
2018-08-20T14:52:09.610Z,49.30
2018-08-20T14:54:39.421Z,49.20
2018-08-20T14:57:08.791Z,49.30
2018-08-20T14:59:38.038Z,49.20
2018-08-20T15:02:07.322Z,49.40
2018-08-20T15:04:36.577Z,49.40
2018-08-20T15:07:10.147Z,49.30
2018-08-20T15:09:39.461Z,49.20
2018-08-20T15:12:08.672Z,49.50
2018-08-20T15:14:37.918Z,49.40
2018-08-20T15:17:07.166Z,49.40
2018-08-20T15:19:36.425Z,49.50
2018-08-20T15:22:05.642Z,49.60
2018-08-20T15:24:34.868Z,49.60
2018-08-20T15:27:04.103Z,49.70
2018-08-20T15:29:33.395Z,49.60
2018-08-20T15:32:02.660Z,49.50
2018-08-20T15:34:31.907Z,50.10
2018-08-20T15:37:01.160Z,50.60
2018-08-20T15:39:30.439Z,50.70
2018-08-20T15:41:59.705Z,50.70
2018-08-20T15:44:29.001Z,51.00
2018-08-20T15:46:58.210Z,51.50
2018-08-20T15:49:27.465Z,51.50
2018-08-20T15:51:56.708Z,51.40
2018-08-20T15:54:25.978Z,51.50
2018-08-20T15:56:55.207Z,51.50
2018-08-20T15:59:24.454Z,51.80
2018-08-20T16:01:53.733Z,52.00
2018-08-20T16:04:22.977Z,52.30
2018-08-20T16:06:52.225Z,52.40
2018-08-20T16:09:21.541Z,52.40
2018-08-20T16:11:50.746Z,52.50
2018-08-20T16:14:20.045Z,52.40
2018-08-20T16:16:49.312Z,51.40
2018-08-20T16:19:18.545Z,52.00
2018-08-20T16:21:47.847Z,51.90
2018-08-20T16:24:17.118Z,51.70
2018-08-20T16:26:46.372Z,51.30
2018-08-20T16:29:15.603Z,51.00
2018-08-20T16:31:44.941Z,50.90
2018-08-20T16:34:14.222Z,50.90
2018-08-20T16:36:43.427Z,50.70
2018-08-20T16:39:13.556Z,50.10
2018-08-20T16:41:42.829Z,50.00
2018-08-20T16:44:12.169Z,49.80
2018-08-20T16:46:41.457Z,50.10
2018-08-20T16:49:11.568Z,50.60
2018-08-20T16:51:40.811Z,51.00
2018-08-20T16:54:10.057Z,50.90
2018-08-20T16:56:39.676Z,50.20
2018-08-20T16:59:08.960Z,50.50
2018-08-20T17:01:38.269Z,50.80
2018-08-20T17:04:29.927Z,51.20
2018-08-20T17:07:01.125Z,51.60
2018-08-20T17:09:30.433Z,51.80
2018-08-20T17:11:59.728Z,52.20
2018-08-20T17:14:29.040Z,52.40
2018-08-20T17:16:58.325Z,52.70
2018-08-20T17:19:27.697Z,52.80
2018-08-20T17:21:56.989Z,52.80
2018-08-20T17:24:37.744Z,53.10
2018-08-20T17:27:07.005Z,53.40
2018-08-20T17:29:36.285Z,53.30
2018-08-20T17:32:06.970Z,53.60
2018-08-20T17:34:39.977Z,53.70
2018-08-20T17:37:09.370Z,53.90
2018-08-20T17:39:59.237Z,53.80
2018-08-20T17:42:29.895Z,53.90
2018-08-20T17:45:00.084Z,54.00
2018-08-20T17:47:30.244Z,53.80
2018-08-20T17:50:00.380Z,53.90
2018-08-20T17:52:36.105Z,53.90
2018-08-20T17:55:06.051Z,53.80
2018-08-20T17:57:35.337Z,54.00
2018-08-20T18:00:22.597Z,54.00
2018-08-20T18:02:51.879Z,54.10
2018-08-20T18:05:22.424Z,54.20
2018-08-20T18:07:51.957Z,54.40
2018-08-20T18:10:21.325Z,54.40
2018-08-20T18:12:50.571Z,54.50
2018-08-20T18:15:19.855Z,54.70
2018-08-20T18:17:49.149Z,54.80
2018-08-20T18:20:18.418Z,55.00
2018-08-20T18:22:47.670Z,55.10
2018-08-20T18:25:17.154Z,55.20
2018-08-20T18:27:46.584Z,55.50
2018-08-20T18:30:18.181Z,55.50
2018-08-20T18:32:47.405Z,55.70
2018-08-20T18:35:24.152Z,55.80
2018-08-20T18:37:53.503Z,55.90
2018-08-20T18:40:22.727Z,55.90
2018-08-20T18:42:52.136Z,56.30
2018-08-20T18:45:21.438Z,56.50
2018-08-20T18:47:50.756Z,56.50
2018-08-20T18:50:20.034Z,56.70
2018-08-20T18:52:49.282Z,56.80
2018-08-20T18:55:18.520Z,56.80
2018-08-20T18:57:47.752Z,56.80
2018-08-20T19:00:17.078Z,57.00
2018-08-20T19:02:52.026Z,57.00
2018-08-20T19:05:21.695Z,57.10
2018-08-20T19:07:51.215Z,57.20
2018-08-20T19:10:26.090Z,57.20
2018-08-20T19:12:55.389Z,57.20
2018-08-20T19:15:39.564Z,57.30
2018-08-20T19:18:11.403Z,57.20
2018-08-20T19:20:41.357Z,57.30
2018-08-20T19:23:10.689Z,57.50
2018-08-20T19:25:40.028Z,57.50
2018-08-20T19:28:16.962Z,57.50
2018-08-20T19:30:46.271Z,57.80
2018-08-20T19:33:20.826Z,57.70
2018-08-20T19:35:50.089Z,58.00
2018-08-20T19:38:19.702Z,58.00
2018-08-20T19:41:03.781Z,58.20
2018-08-20T19:43:38.336Z,58.10
2018-08-20T19:46:07.604Z,58.10
2018-08-20T19:48:36.832Z,58.10
2018-08-20T19:51:09.029Z,58.30
2018-08-20T19:53:38.335Z,58.20
2018-08-20T19:56:13.091Z,58.30
2018-08-20T19:58:44.170Z,58.60
2018-08-20T20:01:17.541Z,58.50
2018-08-20T20:03:48.639Z,58.40
2018-08-20T20:06:18.116Z,58.50
2018-08-20T20:08:47.362Z,58.60
2018-08-20T20:11:31.563Z,58.60
2018-08-20T20:14:02.749Z,58.70
2018-08-20T20:16:39.846Z,58.70
2018-08-20T20:19:09.745Z,58.80
2018-08-20T20:21:39.270Z,58.80
2018-08-20T20:24:09.321Z,58.90
2018-08-20T20:26:38.591Z,58.90
2018-08-20T20:29:09.371Z,59.00
2018-08-20T20:31:39.815Z,59.10
2018-08-20T20:34:09.152Z,59.00
2018-08-20T20:36:38.483Z,59.10
2018-08-20T20:39:10.383Z,59.20
2018-08-20T20:41:39.797Z,59.20
2018-08-20T20:44:10.273Z,59.30
2018-08-20T20:46:39.585Z,59.10
2018-08-20T20:49:08.813Z,59.20
2018-08-20T20:51:38.132Z,59.30
2018-08-20T20:54:07.373Z,59.30
2018-08-20T20:56:36.609Z,59.30
2018-08-20T20:59:05.868Z,59.30
2018-08-20T21:01:35.142Z,59.40
2018-08-20T21:04:07.184Z,59.40
2018-08-20T21:06:40.294Z,59.50
2018-08-20T21:09:11.402Z,59.90
2018-08-20T21:11:40.701Z,59.70
2018-08-20T21:14:09.981Z,59.70
2018-08-20T21:16:39.342Z,59.70
2018-08-20T21:19:08.570Z,61.30
2018-08-20T21:21:37.813Z,61.40
2018-08-20T21:24:08.068Z,62.00
2018-08-20T21:26:37.331Z,62.10
2018-08-20T21:29:06.564Z,62.20
2018-08-20T21:31:41.757Z,62.10
2018-08-20T21:34:11.284Z,62.60
2018-08-20T21:36:40.535Z,63.60
2018-08-20T21:39:10.457Z,63.30
2018-08-20T21:41:39.737Z,63.10
2018-08-20T21:44:08.936Z,63.60
2018-08-20T21:46:38.213Z,64.10
2018-08-20T21:49:07.498Z,64.30
2018-08-20T21:51:42.984Z,65.10
2018-08-20T21:54:12.185Z,64.80
2018-08-20T21:56:52.194Z,65.20
2018-08-20T21:59:21.416Z,65.90
2018-08-20T22:01:50.697Z,65.80
2018-08-20T22:04:22.172Z,66.40
2018-08-20T22:06:51.575Z,67.10
2018-08-20T22:09:20.840Z,67.20
2018-08-20T22:11:51.140Z,67.60
2018-08-20T22:14:20.368Z,67.10
2018-08-20T22:16:49.572Z,67.30
2018-08-20T22:19:18.832Z,67.60
2018-08-20T22:21:48.132Z,67.70
2018-08-20T22:24:17.400Z,68.20
2018-08-20T22:26:50.769Z,68.40
2018-08-20T22:29:20.281Z,68.60
2018-08-20T22:31:54.901Z,68.60
2018-08-20T22:34:27.269Z,68.70
2018-08-20T22:37:11.290Z,68.80
2018-08-20T22:39:40.541Z,69.40
2018-08-20T22:42:09.774Z,70.00
2018-08-20T22:44:38.990Z,70.30
2018-08-20T22:47:08.237Z,70.40
2018-08-20T22:49:37.484Z,70.50
2018-08-20T22:52:08.782Z,70.80
2018-08-20T22:54:37.989Z,70.70
2018-08-20T22:57:07.238Z,70.90
2018-08-20T22:59:36.457Z,70.70
2018-08-20T23:02:05.713Z,70.50
2018-08-20T23:04:34.930Z,70.50
2018-08-20T23:07:08.300Z,70.50
2018-08-20T23:09:37.593Z,70.40
2018-08-20T23:12:07.210Z,70.50
2018-08-20T23:14:36.458Z,70.50
2018-08-20T23:17:05.777Z,70.40
2018-08-20T23:19:35.081Z,70.40
2018-08-20T23:22:04.328Z,70.70
2018-08-20T23:24:33.573Z,71.00
2018-08-20T23:27:02.800Z,71.00
2018-08-20T23:29:32.051Z,71.00
2018-08-20T23:32:01.305Z,70.90
2018-08-20T23:34:30.550Z,71.00
2018-08-20T23:36:59.822Z,71.10
2018-08-20T23:39:29.073Z,71.40
2018-08-20T23:41:58.365Z,71.50
2018-08-20T23:44:27.653Z,71.60
2018-08-20T23:46:56.921Z,71.70
2018-08-20T23:49:26.153Z,72.20
2018-08-20T23:51:55.455Z,72.40
2018-08-20T23:54:24.692Z,72.30
2018-08-20T23:56:53.922Z,72.50
2018-08-20T23:59:23.116Z,72.50
